sensor_id;sensor_type;location;lat;lon;timestamp;pressure;altitude;pressure_sealevel;temperature;humidity
63916;BME280;50094;51.356;-0.196;2023-02-28T00:01:11;102453.19;;;23.88;19.67
63916;BME280;50094;51.356;-0.196;2023-02-28T00:03:44;102452.41;;;25.15;19.23
63916;BME280;50094;51.356;-0.196;2023-02-28T00:06:22;102455.07;;;25.67;18.80
63916;BME280;50094;51.356;-0.196;2023-02-28T00:08:50;102452.41;;;26.27;18.60
63916;BME280;50094;51.356;-0.196;2023-02-28T00:11:17;102455.09;;;26.03;18.64
63916;BME280;50094;51.356;-0.196;2023-02-28T00:13:46;102455.52;;;25.36;18.71
63916;BME280;50094;51.356;-0.196;2023-02-28T00:16:15;102454.97;;;25.17;18.79
63916;BME280;50094;51.356;-0.196;2023-02-28T00:18:43;102456.65;;;24.86;18.89
63916;BME280;50094;51.356;-0.196;2023-02-28T00:21:11;102458.87;;;24.67;18.99
63916;BME280;50094;51.356;-0.196;2023-02-28T00:23:38;102456.01;;;24.56;19.06
63916;BME280;50094;51.356;-0.196;2023-02-28T00:26:05;102456.88;;;24.70;19.13
63916;BME280;50094;51.356;-0.196;2023-02-28T00:28:33;102458.84;;;24.61;19.19
63916;BME280;50094;51.356;-0.196;2023-02-28T00:31:01;102455.88;;;24.51;19.26
63916;BME280;50094;51.356;-0.196;2023-02-28T00:33:29;102457.48;;;24.76;19.31
63916;BME280;50094;51.356;-0.196;2023-02-28T00:36:06;102455.86;;;24.69;19.36
63916;BME280;50094;51.356;-0.196;2023-02-28T00:38:34;102457.00;;;24.36;19.42
63916;BME280;50094;51.356;-0.196;2023-02-28T00:41:02;102458.86;;;24.36;19.45
63916;BME280;50094;51.356;-0.196;2023-02-28T00:43:30;102463.28;;;24.58;19.49
63916;BME280;50094;51.356;-0.196;2023-02-28T00:45:58;102459.98;;;24.34;19.52
63916;BME280;50094;51.356;-0.196;2023-02-28T00:48:26;102461.84;;;24.28;19.55
63916;BME280;50094;51.356;-0.196;2023-02-28T00:50:54;102463.14;;;24.54;19.57
63916;BME280;50094;51.356;-0.196;2023-02-28T00:53:22;102460.13;;;24.25;19.60
63916;BME280;50094;51.356;-0.196;2023-02-28T00:55:49;102460.84;;;24.48;19.62
63916;BME280;50094;51.356;-0.196;2023-02-28T00:58:17;102461.74;;;24.44;19.65
63916;BME280;50094;51.356;-0.196;2023-02-28T01:00:45;102464.93;;;24.43;19.66
63916;BME280;50094;51.356;-0.196;2023-02-28T01:03:12;102460.70;;;24.15;19.68
63916;BME280;50094;51.356;-0.196;2023-02-28T01:05:40;102461.42;;;24.14;19.70
63916;BME280;50094;51.356;-0.196;2023-02-28T01:08:08;102463.71;;;24.14;19.71
63916;BME280;50094;51.356;-0.196;2023-02-28T01:10:36;102461.83;;;24.61;19.73
63916;BME280;50094;51.356;-0.196;2023-02-28T01:13:04;102466.94;;;24.11;19.74
63916;BME280;50094;51.356;-0.196;2023-02-28T01:15:32;102468.57;;;24.19;19.73
63916;BME280;50094;51.356;-0.196;2023-02-28T01:17:59;102467.14;;;24.19;19.72
63916;BME280;50094;51.356;-0.196;2023-02-28T01:20:27;102470.22;;;24.13;19.73
63916;BME280;50094;51.356;-0.196;2023-02-28T01:22:55;102473.38;;;24.07;19.75
63916;BME280;50094;51.356;-0.196;2023-02-28T01:25:23;102478.12;;;24.04;19.76
63916;BME280;50094;51.356;-0.196;2023-02-28T01:27:50;102476.38;;;24.50;19.79
63916;BME280;50094;51.356;-0.196;2023-02-28T01:30:18;102477.93;;;24.23;19.81
63916;BME280;50094;51.356;-0.196;2023-02-28T01:32:46;102479.99;;;24.22;19.83
63916;BME280;50094;51.356;-0.196;2023-02-28T01:35:14;102482.96;;;24.24;19.84
63916;BME280;50094;51.356;-0.196;2023-02-28T01:37:41;102481.19;;;24.23;19.84
63916;BME280;50094;51.356;-0.196;2023-02-28T01:40:10;102479.83;;;23.96;19.85
63916;BME280;50094;51.356;-0.196;2023-02-28T01:42:37;102475.43;;;23.92;19.86
63916;BME280;50094;51.356;-0.196;2023-02-28T01:45:20;102473.16;;;24.22;19.85
63916;BME280;50094;51.356;-0.196;2023-02-28T01:47:51;102475.85;;;24.24;19.85
63916;BME280;50094;51.356;-0.196;2023-02-28T01:50:22;102476.50;;;24.16;19.87
63916;BME280;50094;51.356;-0.196;2023-02-28T01:52:50;102476.69;;;24.14;19.88
63916;BME280;50094;51.356;-0.196;2023-02-28T01:55:20;102474.33;;;23.84;19.89
63916;BME280;50094;51.356;-0.196;2023-02-28T01:57:52;102473.47;;;23.86;19.89
63916;BME280;50094;51.356;-0.196;2023-02-28T02:00:25;102470.53;;;24.35;19.89
63916;BME280;50094;51.356;-0.196;2023-02-28T02:02:55;102473.38;;;24.30;19.91
63916;BME280;50094;51.356;-0.196;2023-02-28T02:05:26;102473.36;;;24.09;19.92
63916;BME280;50094;51.356;-0.196;2023-02-28T02:07:55;102474.39;;;23.83;19.92
63916;BME280;50094;51.356;-0.196;2023-02-28T02:10:29;102475.32;;;24.08;19.93
63916;BME280;50094;51.356;-0.196;2023-02-28T02:13:18;102478.88;;;23.81;19.93
63916;BME280;50094;51.356;-0.196;2023-02-28T02:15:53;102480.95;;;24.13;19.93
63916;BME280;50094;51.356;-0.196;2023-02-28T02:18:28;102480.68;;;23.90;19.92
63916;BME280;50094;51.356;-0.196;2023-02-28T02:21:35;102486.12;;;24.16;19.90
63916;BME280;50094;51.356;-0.196;2023-02-28T02:24:33;102486.49;;;24.32;19.92
63916;BME280;50094;51.356;-0.196;2023-02-28T02:27:18;102484.92;;;23.79;19.92
63916;BME280;50094;51.356;-0.196;2023-02-28T02:30:35;102480.12;;;24.04;19.92
63916;BME280;50094;51.356;-0.196;2023-02-28T02:35:40;102482.28;;;24.15;19.93
63916;BME280;50094;51.356;-0.196;2023-02-28T02:38:16;102481.82;;;24.04;19.91
63916;BME280;50094;51.356;-0.196;2023-02-28T02:40:51;102479.41;;;23.79;19.89
63916;BME280;50094;51.356;-0.196;2023-02-28T02:43:26;102482.37;;;23.74;19.90
63916;BME280;50094;51.356;-0.196;2023-02-28T02:45:59;102477.78;;;23.99;19.90
63916;BME280;50094;51.356;-0.196;2023-02-28T02:48:32;102473.45;;;23.70;19.89
63916;BME280;50094;51.356;-0.196;2023-02-28T02:51:05;102474.25;;;23.92;19.90
63916;BME280;50094;51.356;-0.196;2023-02-28T02:53:38;102476.90;;;23.65;19.89
63916;BME280;50094;51.356;-0.196;2023-02-28T02:56:08;102474.50;;;23.92;19.89
63916;BME280;50094;51.356;-0.196;2023-02-28T02:58:40;102465.68;;;23.92;19.89
63916;BME280;50094;51.356;-0.196;2023-02-28T03:01:12;102463.50;;;23.66;19.89
63916;BME280;50094;51.356;-0.196;2023-02-28T03:03:41;102468.40;;;23.92;19.88
63916;BME280;50094;51.356;-0.196;2023-02-28T03:06:09;102464.78;;;24.17;19.88
63916;BME280;50094;51.356;-0.196;2023-02-28T03:08:38;102459.53;;;23.65;19.87
63916;BME280;50094;51.356;-0.196;2023-02-28T03:11:06;102458.20;;;23.63;19.87
63916;BME280;50094;51.356;-0.196;2023-02-28T03:14:52;102457.26;;;24.13;19.86
63916;BME280;50094;51.356;-0.196;2023-02-28T03:17:49;102457.00;;;23.84;19.87
63916;BME280;50094;51.356;-0.196;2023-02-28T03:20:32;102453.86;;;23.82;19.86
63916;BME280;50094;51.356;-0.196;2023-02-28T03:23:08;102454.70;;;23.86;19.86
63916;BME280;50094;51.356;-0.196;2023-02-28T03:25:42;102464.74;;;24.05;19.84
63916;BME280;50094;51.356;-0.196;2023-02-28T03:28:19;102468.04;;;23.56;19.84
63916;BME280;50094;51.356;-0.196;2023-02-28T03:30:52;102471.49;;;23.81;19.83
63916;BME280;50094;51.356;-0.196;2023-02-28T03:33:23;102473.18;;;24.00;19.84
63916;BME280;50094;51.356;-0.196;2023-02-28T03:35:56;102466.51;;;23.75;19.84
63916;BME280;50094;51.356;-0.196;2023-02-28T03:38:30;102473.15;;;23.73;19.84
63916;BME280;50094;51.356;-0.196;2023-02-28T03:41:05;102472.39;;;23.93;19.84
63916;BME280;50094;51.356;-0.196;2023-02-28T03:43:36;102474.35;;;23.68;19.84
63916;BME280;50094;51.356;-0.196;2023-02-28T03:46:08;102470.61;;;23.42;19.84
63916;BME280;50094;51.356;-0.196;2023-02-28T03:48:41;102477.29;;;23.93;19.83
63916;BME280;50094;51.356;-0.196;2023-02-28T03:51:15;102482.93;;;23.69;19.82
63916;BME280;50094;51.356;-0.196;2023-02-28T03:53:46;102478.08;;;23.88;19.83
63916;BME280;50094;51.356;-0.196;2023-02-28T03:56:18;102478.58;;;23.65;19.81
63916;BME280;50094;51.356;-0.196;2023-02-28T03:58:51;102484.44;;;23.85;19.81
63916;BME280;50094;51.356;-0.196;2023-02-28T04:01:24;102482.92;;;23.82;19.81
63916;BME280;50094;51.356;-0.196;2023-02-28T04:03:53;102485.36;;;23.58;19.81
63916;BME280;50094;51.356;-0.196;2023-02-28T04:06:22;102485.55;;;23.60;19.80
63916;BME280;50094;51.356;-0.196;2023-02-28T04:08:50;102481.66;;;23.59;19.79
63916;BME280;50094;51.356;-0.196;2023-02-28T04:11:22;102484.08;;;23.31;19.79
63916;BME280;50094;51.356;-0.196;2023-02-28T04:13:51;102481.85;;;23.54;19.79
63916;BME280;50094;51.356;-0.196;2023-02-28T04:16:18;102473.44;;;23.78;19.78
63916;BME280;50094;51.356;-0.196;2023-02-28T04:18:46;102474.33;;;23.57;19.77
63916;BME280;50094;51.356;-0.196;2023-02-28T04:21:14;102472.80;;;23.75;19.77
63916;BME280;50094;51.356;-0.196;2023-02-28T04:23:41;102473.43;;;23.46;19.78
63916;BME280;50094;51.356;-0.196;2023-02-28T04:26:09;102474.05;;;23.48;19.78
63916;BME280;50094;51.356;-0.196;2023-02-28T04:28:37;102476.45;;;23.48;19.77
63916;BME280;50094;51.356;-0.196;2023-02-28T04:31:05;102481.02;;;23.65;19.77
63916;BME280;50094;51.356;-0.196;2023-02-28T04:33:33;102483.16;;;23.62;19.78
63916;BME280;50094;51.356;-0.196;2023-02-28T04:36:02;102484.07;;;23.15;19.78
63916;BME280;50094;51.356;-0.196;2023-02-28T04:38:33;102487.90;;;23.66;19.76
63916;BME280;50094;51.356;-0.196;2023-02-28T04:41:00;102494.35;;;23.40;19.76
63916;BME280;50094;51.356;-0.196;2023-02-28T04:43:29;102497.25;;;23.35;19.77
63916;BME280;50094;51.356;-0.196;2023-02-28T04:45:58;102500.75;;;23.63;19.76
63916;BME280;50094;51.356;-0.196;2023-02-28T04:48:29;102503.20;;;23.56;19.77
63916;BME280;50094;51.356;-0.196;2023-02-28T04:51:00;102503.60;;;23.54;19.77
63916;BME280;50094;51.356;-0.196;2023-02-28T04:53:28;102505.08;;;23.57;19.77
63916;BME280;50094;51.356;-0.196;2023-02-28T04:55:57;102505.76;;;23.55;19.77
63916;BME280;50094;51.356;-0.196;2023-02-28T04:58:25;102500.68;;;23.52;19.77
63916;BME280;50094;51.356;-0.196;2023-02-28T05:00:53;102499.98;;;23.58;19.75
63916;BME280;50094;51.356;-0.196;2023-02-28T05:03:21;102502.30;;;23.54;19.76
63916;BME280;50094;51.356;-0.196;2023-02-28T05:05:49;102502.71;;;23.54;19.75
63916;BME280;50094;51.356;-0.196;2023-02-28T05:08:16;102506.50;;;23.50;19.76
63916;BME280;50094;51.356;-0.196;2023-02-28T05:10:44;102505.07;;;23.52;19.76
63916;BME280;50094;51.356;-0.196;2023-02-28T05:13:12;102505.05;;;23.31;19.75
63916;BME280;50094;51.356;-0.196;2023-02-28T05:15:40;102507.36;;;23.49;19.75
63916;BME280;50094;51.356;-0.196;2023-02-28T05:18:08;102509.42;;;23.27;19.75
63916;BME280;50094;51.356;-0.196;2023-02-28T05:20:36;102509.69;;;23.51;19.73
63916;BME280;50094;51.356;-0.196;2023-02-28T05:23:04;102510.01;;;23.48;19.73
63916;BME280;50094;51.356;-0.196;2023-02-28T05:25:32;102510.07;;;23.45;19.73
63916;BME280;50094;51.356;-0.196;2023-02-28T05:27:59;102509.64;;;23.19;19.74
63916;BME280;50094;51.356;-0.196;2023-02-28T05:30:27;102505.53;;;23.18;19.74
63916;BME280;50094;51.356;-0.196;2023-02-28T05:32:55;102508.37;;;23.39;19.73
63916;BME280;50094;51.356;-0.196;2023-02-28T05:35:23;102510.75;;;23.11;19.74
63916;BME280;50094;51.356;-0.196;2023-02-28T05:37:50;102513.93;;;23.19;19.76
63916;BME280;50094;51.356;-0.196;2023-02-28T05:40:18;102518.93;;;23.48;19.79
63916;BME280;50094;51.356;-0.196;2023-02-28T05:42:46;102520.72;;;23.06;19.84
63916;BME280;50094;51.356;-0.196;2023-02-28T05:45:14;102527.18;;;23.42;19.87
63916;BME280;50094;51.356;-0.196;2023-02-28T05:47:41;102530.35;;;23.78;19.89
63916;BME280;50094;51.356;-0.196;2023-02-28T05:50:10;102531.39;;;23.85;19.91
63916;BME280;50094;51.356;-0.196;2023-02-28T05:52:37;102527.44;;;23.70;19.93
63916;BME280;50094;51.356;-0.196;2023-02-28T05:55:05;102526.46;;;23.80;19.93
63916;BME280;50094;51.356;-0.196;2023-02-28T05:57:33;102527.50;;;23.91;19.93
63916;BME280;50094;51.356;-0.196;2023-02-28T06:00:02;102529.45;;;23.96;19.92
63916;BME280;50094;51.356;-0.196;2023-02-28T06:02:30;102529.93;;;24.03;19.91
63916;BME280;50094;51.356;-0.196;2023-02-28T06:04:57;102531.56;;;23.82;19.90
63916;BME280;50094;51.356;-0.196;2023-02-28T06:07:25;102531.21;;;23.88;19.89
63916;BME280;50094;51.356;-0.196;2023-02-28T06:09:52;102533.74;;;23.94;19.89
63916;BME280;50094;51.356;-0.196;2023-02-28T06:12:20;102535.72;;;24.26;19.87
63916;BME280;50094;51.356;-0.196;2023-02-28T06:14:48;102538.07;;;24.04;19.86
63916;BME280;50094;51.356;-0.196;2023-02-28T06:17:16;102541.02;;;24.14;19.84
63916;BME280;50094;51.356;-0.196;2023-02-28T06:19:43;102538.28;;;24.18;19.82
63916;BME280;50094;51.356;-0.196;2023-02-28T06:22:11;102538.39;;;24.16;19.81
63916;BME280;50094;51.356;-0.196;2023-02-28T06:24:39;102536.31;;;24.22;19.78
63916;BME280;50094;51.356;-0.196;2023-02-28T06:27:07;102530.95;;;24.20;19.78
63916;BME280;50094;51.356;-0.196;2023-02-28T06:29:35;102532.69;;;24.19;19.81
63916;BME280;50094;51.356;-0.196;2023-02-28T06:32:02;102531.56;;;23.80;19.77
63916;BME280;50094;51.356;-0.196;2023-02-28T06:34:30;102531.87;;;24.33;19.77
63916;BME280;50094;51.356;-0.196;2023-02-28T06:36:57;102531.59;;;24.32;19.74
63916;BME280;50094;51.356;-0.196;2023-02-28T06:39:25;102524.09;;;24.26;19.73
63916;BME280;50094;51.356;-0.196;2023-02-28T06:41:53;102528.02;;;24.25;19.70
63916;BME280;50094;51.356;-0.196;2023-02-28T06:44:20;102533.31;;;24.20;19.68
63916;BME280;50094;51.356;-0.196;2023-02-28T06:46:48;102535.63;;;24.15;19.65
63916;BME280;50094;51.356;-0.196;2023-02-28T06:49:17;102534.01;;;24.34;19.64
63916;BME280;50094;51.356;-0.196;2023-02-28T06:51:45;102536.37;;;24.05;19.62
63916;BME280;50094;51.356;-0.196;2023-02-28T06:54:12;102539.92;;;24.01;19.62
63916;BME280;50094;51.356;-0.196;2023-02-28T06:56:40;102536.93;;;24.29;19.59
63916;BME280;50094;51.356;-0.196;2023-02-28T06:59:08;102539.44;;;24.48;19.58
63916;BME280;50094;51.356;-0.196;2023-02-28T07:01:35;102537.33;;;23.94;19.58
63916;BME280;50094;51.356;-0.196;2023-02-28T07:04:05;102539.42;;;23.84;19.59
63916;BME280;50094;51.356;-0.196;2023-02-28T07:06:33;102540.51;;;24.06;19.62
63916;BME280;50094;51.356;-0.196;2023-02-28T07:09:01;102540.48;;;24.02;19.66
63916;BME280;50094;51.356;-0.196;2023-02-28T07:11:28;102537.80;;;24.29;19.66
63916;BME280;50094;51.356;-0.196;2023-02-28T07:13:57;102534.34;;;23.75;19.68
63916;BME280;50094;51.356;-0.196;2023-02-28T07:16:25;102535.48;;;23.98;19.70
63916;BME280;50094;51.356;-0.196;2023-02-28T07:18:52;102536.53;;;23.92;19.74
63916;BME280;50094;51.356;-0.196;2023-02-28T07:21:20;102539.82;;;23.87;19.77
63916;BME280;50094;51.356;-0.196;2023-02-28T07:23:48;102541.47;;;23.84;19.80
63916;BME280;50094;51.356;-0.196;2023-02-28T07:26:17;102542.48;;;24.05;19.82
63916;BME280;50094;51.356;-0.196;2023-02-28T07:28:47;102546.91;;;23.80;19.85
63916;BME280;50094;51.356;-0.196;2023-02-28T07:31:16;102547.44;;;23.75;19.88
63916;BME280;50094;51.356;-0.196;2023-02-28T07:33:43;102546.31;;;23.75;19.91
63916;BME280;50094;51.356;-0.196;2023-02-28T07:36:13;102549.72;;;23.93;19.94
63916;BME280;50094;51.356;-0.196;2023-02-28T07:38:41;102550.07;;;24.01;19.94
63916;BME280;50094;51.356;-0.196;2023-02-28T07:41:09;102551.31;;;23.75;19.98
63916;BME280;50094;51.356;-0.196;2023-02-28T07:43:37;102547.06;;;23.76;20.00
63916;BME280;50094;51.356;-0.196;2023-02-28T07:46:06;102552.08;;;23.74;20.02
63916;BME280;50094;51.356;-0.196;2023-02-28T07:48:34;102555.79;;;23.48;20.04
63916;BME280;50094;51.356;-0.196;2023-02-28T07:51:02;102552.16;;;23.95;20.05
63916;BME280;50094;51.356;-0.196;2023-02-28T07:53:30;102555.89;;;23.71;20.07
63916;BME280;50094;51.356;-0.196;2023-02-28T07:55:59;102557.80;;;23.70;20.08
63916;BME280;50094;51.356;-0.196;2023-02-28T07:58:28;102555.04;;;23.69;20.10
63916;BME280;50094;51.356;-0.196;2023-02-28T08:00:56;102554.14;;;23.74;20.10
63916;BME280;50094;51.356;-0.196;2023-02-28T08:03:24;102559.04;;;23.47;20.12
63916;BME280;50094;51.356;-0.196;2023-02-28T08:05:51;102562.86;;;23.48;20.11
63916;BME280;50094;51.356;-0.196;2023-02-28T08:08:19;102565.79;;;23.39;20.18
63916;BME280;50094;51.356;-0.196;2023-02-28T08:10:47;102563.22;;;23.46;20.23
63916;BME280;50094;51.356;-0.196;2023-02-28T08:13:15;102565.66;;;23.32;20.31
63916;BME280;50094;51.356;-0.196;2023-02-28T08:15:43;102563.71;;;23.16;20.39
63916;BME280;50094;51.356;-0.196;2023-02-28T08:18:10;102569.76;;;23.07;20.48
63916;BME280;50094;51.356;-0.196;2023-02-28T08:20:38;102562.59;;;22.84;20.54
63916;BME280;50094;51.356;-0.196;2023-02-28T08:23:05;102561.44;;;22.75;20.62
63916;BME280;50094;51.356;-0.196;2023-02-28T08:25:33;102562.17;;;22.97;20.65
63916;BME280;50094;51.356;-0.196;2023-02-28T08:28:01;102562.30;;;23.03;20.69
63916;BME280;50094;51.356;-0.196;2023-02-28T08:30:29;102563.79;;;22.78;20.73
63916;BME280;50094;51.356;-0.196;2023-02-28T08:32:56;102562.13;;;23.00;20.77
63916;BME280;50094;51.356;-0.196;2023-02-28T08:35:24;102561.13;;;23.06;20.78
63916;BME280;50094;51.356;-0.196;2023-02-28T08:37:51;102561.42;;;23.03;20.81
63916;BME280;50094;51.356;-0.196;2023-02-28T08:40:19;102562.25;;;22.59;20.82
63916;BME280;50094;51.356;-0.196;2023-02-28T08:42:48;102565.25;;;23.11;20.81
63916;BME280;50094;51.356;-0.196;2023-02-28T08:45:15;102565.11;;;22.89;20.81
63916;BME280;50094;51.356;-0.196;2023-02-28T08:47:42;102560.73;;;23.15;20.79
63916;BME280;50094;51.356;-0.196;2023-02-28T08:50:10;102562.27;;;22.90;20.79
63916;BME280;50094;51.356;-0.196;2023-02-28T08:52:38;102560.53;;;22.94;20.77
63916;BME280;50094;51.356;-0.196;2023-02-28T08:55:06;102564.05;;;23.11;20.79
63916;BME280;50094;51.356;-0.196;2023-02-28T08:57:34;102564.27;;;22.91;20.77
63916;BME280;50094;51.356;-0.196;2023-02-28T09:00:03;102564.01;;;22.74;20.75
63916;BME280;50094;51.356;-0.196;2023-02-28T09:02:31;102557.59;;;22.92;20.77
63916;BME280;50094;51.356;-0.196;2023-02-28T09:04:58;102554.75;;;22.89;20.79
63916;BME280;50094;51.356;-0.196;2023-02-28T09:07:26;102554.05;;;23.16;20.80
63916;BME280;50094;51.356;-0.196;2023-02-28T09:09:54;102555.35;;;23.12;20.81
63916;BME280;50094;51.356;-0.196;2023-02-28T09:12:22;102554.56;;;23.19;20.77
63916;BME280;50094;51.356;-0.196;2023-02-28T09:14:51;102554.30;;;23.19;20.78
63916;BME280;50094;51.356;-0.196;2023-02-28T09:17:18;102553.59;;;22.75;20.74
63916;BME280;50094;51.356;-0.196;2023-02-28T09:19:48;102547.16;;;23.27;20.72
63916;BME280;50094;51.356;-0.196;2023-02-28T09:22:16;102550.91;;;23.23;20.72
63916;BME280;50094;51.356;-0.196;2023-02-28T09:24:43;102553.06;;;23.04;20.70
63916;BME280;50094;51.356;-0.196;2023-02-28T09:27:11;102551.05;;;22.68;20.71
63916;BME280;50094;51.356;-0.196;2023-02-28T09:29:39;102555.70;;;23.21;20.70
63916;BME280;50094;51.356;-0.196;2023-02-28T09:32:06;102548.33;;;23.00;20.69
63916;BME280;50094;51.356;-0.196;2023-02-28T09:34:34;102550.41;;;23.10;20.74
63916;BME280;50094;51.356;-0.196;2023-02-28T09:37:02;102544.26;;;23.11;20.78
63916;BME280;50094;51.356;-0.196;2023-02-28T09:39:30;102546.24;;;22.93;20.78
63916;BME280;50094;51.356;-0.196;2023-02-28T09:41:57;102545.35;;;22.92;20.80
63916;BME280;50094;51.356;-0.196;2023-02-28T09:44:31;102547.39;;;22.78;20.78
63916;BME280;50094;51.356;-0.196;2023-02-28T09:47:05;102540.20;;;23.03;20.77
63916;BME280;50094;51.356;-0.196;2023-02-28T09:49:38;102538.38;;;23.16;20.79
63916;BME280;50094;51.356;-0.196;2023-02-28T09:52:10;102534.23;;;22.68;20.77
63916;BME280;50094;51.356;-0.196;2023-02-28T09:54:39;102536.08;;;22.96;20.77
63916;BME280;50094;51.356;-0.196;2023-02-28T09:57:10;102532.99;;;22.87;20.81
63916;BME280;50094;51.356;-0.196;2023-02-28T09:59:50;102521.97;;;22.89;20.82
63916;BME280;50094;51.356;-0.196;2023-02-28T10:02:46;102527.47;;;23.22;20.81
63916;BME280;50094;51.356;-0.196;2023-02-28T10:05:17;102541.32;;;23.18;20.81
63916;BME280;50094;51.356;-0.196;2023-02-28T10:07:55;102536.45;;;23.15;20.81
63916;BME280;50094;51.356;-0.196;2023-02-28T10:10:27;102533.33;;;23.07;20.80
63916;BME280;50094;51.356;-0.196;2023-02-28T10:13:00;102529.11;;;23.06;20.82
63916;BME280;50094;51.356;-0.196;2023-02-28T10:15:31;102533.43;;;22.87;20.82
63916;BME280;50094;51.356;-0.196;2023-02-28T10:18:04;102538.15;;;23.12;20.83
63916;BME280;50094;51.356;-0.196;2023-02-28T10:20:34;102525.92;;;22.89;20.84
63916;BME280;50094;51.356;-0.196;2023-02-28T10:23:09;102525.26;;;22.92;20.84
63916;BME280;50094;51.356;-0.196;2023-02-28T10:25:39;102523.92;;;23.37;20.85
63916;BME280;50094;51.356;-0.196;2023-02-28T10:28:11;102527.20;;;22.88;20.85
63916;BME280;50094;51.356;-0.196;2023-02-28T10:30:43;102517.65;;;23.10;20.86
63916;BME280;50094;51.356;-0.196;2023-02-28T10:33:19;102517.31;;;23.09;20.88
63916;BME280;50094;51.356;-0.196;2023-02-28T10:35:49;102527.99;;;22.88;20.89
63916;BME280;50094;51.356;-0.196;2023-02-28T10:38:19;102521.59;;;22.85;20.90
63916;BME280;50094;51.356;-0.196;2023-02-28T10:40:48;102516.57;;;23.04;20.91
63916;BME280;50094;51.356;-0.196;2023-02-28T10:43:21;102522.62;;;23.09;20.91
63916;BME280;50094;51.356;-0.196;2023-02-28T10:45:57;102512.83;;;23.07;20.90
63916;BME280;50094;51.356;-0.196;2023-02-28T10:48:30;102520.57;;;22.83;20.91
63916;BME280;50094;51.356;-0.196;2023-02-28T10:51:01;102518.64;;;23.11;20.88
63916;BME280;50094;51.356;-0.196;2023-02-28T10:53:32;102514.36;;;23.05;20.89
63916;BME280;50094;51.356;-0.196;2023-02-28T10:56:02;102519.94;;;23.00;20.90
63916;BME280;50094;51.356;-0.196;2023-02-28T10:58:33;102521.37;;;22.70;20.92
63916;BME280;50094;51.356;-0.196;2023-02-28T11:01:14;102513.79;;;23.04;20.90
63916;BME280;50094;51.356;-0.196;2023-02-28T11:03:42;102512.33;;;22.94;20.93
63916;BME280;50094;51.356;-0.196;2023-02-28T11:06:16;102503.02;;;22.85;20.96
63916;BME280;50094;51.356;-0.196;2023-02-28T11:08:48;102504.39;;;22.82;20.99
63916;BME280;50094;51.356;-0.196;2023-02-28T11:11:16;102504.11;;;22.86;21.01
63916;BME280;50094;51.356;-0.196;2023-02-28T11:13:45;102499.02;;;22.65;21.03
63916;BME280;50094;51.356;-0.196;2023-02-28T11:16:15;102501.53;;;22.86;21.05
63916;BME280;50094;51.356;-0.196;2023-02-28T11:18:46;102501.06;;;22.92;21.05
63916;BME280;50094;51.356;-0.196;2023-02-28T11:21:19;102497.85;;;22.66;21.07
63916;BME280;50094;51.356;-0.196;2023-02-28T11:23:50;102494.88;;;22.70;21.07
63916;BME280;50094;51.356;-0.196;2023-02-28T11:26:36;102488.02;;;22.99;21.05
63916;BME280;50094;51.356;-0.196;2023-02-28T11:29:12;102483.64;;;22.95;21.06
63916;BME280;50094;51.356;-0.196;2023-02-28T11:31:42;102481.03;;;22.94;21.09
63916;BME280;50094;51.356;-0.196;2023-02-28T11:34:24;102478.40;;;22.95;21.10
63916;BME280;50094;51.356;-0.196;2023-02-28T11:36:52;102476.05;;;22.92;21.12
63916;BME280;50094;51.356;-0.196;2023-02-28T11:39:20;102467.11;;;22.98;21.12
63916;BME280;50094;51.356;-0.196;2023-02-28T11:42:02;102463.95;;;23.00;21.13
63916;BME280;50094;51.356;-0.196;2023-02-28T11:44:41;102451.65;;;23.15;21.15
63916;BME280;50094;51.356;-0.196;2023-02-28T11:47:17;102435.54;;;22.84;21.18
63916;BME280;50094;51.356;-0.196;2023-02-28T11:49:57;102454.86;;;22.83;21.21
63916;BME280;50094;51.356;-0.196;2023-02-28T11:52:37;102473.85;;;22.95;21.22
63916;BME280;50094;51.356;-0.196;2023-02-28T11:55:16;102465.16;;;22.73;21.24
63916;BME280;50094;51.356;-0.196;2023-02-28T11:57:58;102469.54;;;22.71;21.27
63916;BME280;50094;51.356;-0.196;2023-02-28T12:00:39;102473.45;;;22.95;21.27
63916;BME280;50094;51.356;-0.196;2023-02-28T12:03:19;102463.86;;;22.80;21.26
63916;BME280;50094;51.356;-0.196;2023-02-28T12:05:57;102461.75;;;22.88;21.29
63916;BME280;50094;51.356;-0.196;2023-02-28T12:08:42;102458.15;;;22.63;21.33
63916;BME280;50094;51.356;-0.196;2023-02-28T12:11:19;102459.34;;;22.63;21.34
63916;BME280;50094;51.356;-0.196;2023-02-28T12:14:14;102459.81;;;22.78;21.38
63916;BME280;50094;51.356;-0.196;2023-02-28T12:16:54;102441.49;;;22.75;21.40
63916;BME280;50094;51.356;-0.196;2023-02-28T12:19:27;102435.61;;;22.67;21.46
63916;BME280;50094;51.356;-0.196;2023-02-28T12:22:12;102425.30;;;22.70;21.47
63916;BME280;50094;51.356;-0.196;2023-02-28T12:24:55;102412.58;;;22.75;21.49
63916;BME280;50094;51.356;-0.196;2023-02-28T12:27:29;102405.64;;;22.78;21.51
63916;BME280;50094;51.356;-0.196;2023-02-28T12:30:02;102392.48;;;22.96;21.55
63916;BME280;50094;51.356;-0.196;2023-02-28T12:32:33;102385.49;;;22.79;21.57
63916;BME280;50094;51.356;-0.196;2023-02-28T12:35:04;102377.10;;;22.82;21.57
63916;BME280;50094;51.356;-0.196;2023-02-28T12:37:41;102387.55;;;22.65;21.58
63916;BME280;50094;51.356;-0.196;2023-02-28T12:40:14;102385.06;;;22.79;21.61
63916;BME280;50094;51.356;-0.196;2023-02-28T12:42:45;102389.86;;;22.76;21.62
63916;BME280;50094;51.356;-0.196;2023-02-28T12:45:19;102386.50;;;22.81;21.63
63916;BME280;50094;51.356;-0.196;2023-02-28T12:47:52;102392.95;;;22.82;21.65
63916;BME280;50094;51.356;-0.196;2023-02-28T12:50:23;102385.06;;;22.91;21.64
63916;BME280;50094;51.356;-0.196;2023-02-28T12:52:56;102385.16;;;22.92;21.64
63916;BME280;50094;51.356;-0.196;2023-02-28T12:55:31;102377.81;;;22.63;21.67
63916;BME280;50094;51.356;-0.196;2023-02-28T12:58:10;102370.07;;;22.63;21.68
63916;BME280;50094;51.356;-0.196;2023-02-28T13:00:53;102364.71;;;22.84;21.69
63916;BME280;50094;51.356;-0.196;2023-02-28T13:03:49;102368.58;;;22.84;21.70